sensor_id;sensor_type;location;lat;lon;timestamp;temperature;humidity
11043;DHT22;5574;48.786;10.120;2023-07-20T00:02:26;21.00;84.50
11043;DHT22;5574;48.786;10.120;2023-07-20T00:04:53;21.00;83.90
11043;DHT22;5574;48.786;10.120;2023-07-20T00:07:19;21.10;84.90
11043;DHT22;5574;48.786;10.120;2023-07-20T00:09:47;21.00;84.10
11043;DHT22;5574;48.786;10.120;2023-07-20T00:12:14;21.00;84.20
11043;DHT22;5574;48.786;10.120;2023-07-20T00:14:41;21.00;84.40
11043;DHT22;5574;48.786;10.120;2023-07-20T00:17:07;21.00;84.60
11043;DHT22;5574;48.786;10.120;2023-07-20T00:19:34;21.00;85.70
11043;DHT22;5574;48.786;10.120;2023-07-20T00:22:01;21.00;84.90
11043;DHT22;5574;48.786;10.120;2023-07-20T00:24:30;21.00;84.50
11043;DHT22;5574;48.786;10.120;2023-07-20T00:26:58;21.00;85.20
11043;DHT22;5574;48.786;10.120;2023-07-20T00:29:26;21.00;85.70
11043;DHT22;5574;48.786;10.120;2023-07-20T00:31:53;21.00;85.10
11043;DHT22;5574;48.786;10.120;2023-07-20T00:34:19;21.00;85.20
11043;DHT22;5574;48.786;10.120;2023-07-20T00:36:46;21.00;85.00
11043;DHT22;5574;48.786;10.120;2023-07-20T00:39:14;21.00;84.80
11043;DHT22;5574;48.786;10.120;2023-07-20T00:41:41;21.00;84.10
11043;DHT22;5574;48.786;10.120;2023-07-20T00:44:09;21.00;83.80
11043;DHT22;5574;48.786;10.120;2023-07-20T00:46:36;21.00;83.40
11043;DHT22;5574;48.786;10.120;2023-07-20T00:49:02;21.00;83.50
11043;DHT22;5574;48.786;10.120;2023-07-20T00:51:29;20.90;82.60
11043;DHT22;5574;48.786;10.120;2023-07-20T00:53:56;20.90;82.50
11043;DHT22;5574;48.786;10.120;2023-07-20T00:56:23;20.90;83.50
11043;DHT22;5574;48.786;10.120;2023-07-20T00:58:50;20.90;83.20
11043;DHT22;5574;48.786;10.120;2023-07-20T01:01:18;20.90;82.10
11043;DHT22;5574;48.786;10.120;2023-07-20T01:03:44;20.90;80.20
11043;DHT22;5574;48.786;10.120;2023-07-20T01:06:18;20.90;80.80
11043;DHT22;5574;48.786;10.120;2023-07-20T01:08:57;20.90;81.40
11043;DHT22;5574;48.786;10.120;2023-07-20T01:11:43;20.90;81.50
11043;DHT22;5574;48.786;10.120;2023-07-20T01:14:12;20.90;81.50
11043;DHT22;5574;48.786;10.120;2023-07-20T01:16:42;20.90;81.00
11043;DHT22;5574;48.786;10.120;2023-07-20T01:19:08;20.90;80.90
11043;DHT22;5574;48.786;10.120;2023-07-20T01:21:40;20.90;81.30
11043;DHT22;5574;48.786;10.120;2023-07-20T01:27:26;20.80;81.00
11043;DHT22;5574;48.786;10.120;2023-07-20T01:30:16;20.80;80.90
11043;DHT22;5574;48.786;10.120;2023-07-20T01:32:47;20.80;81.80
11043;DHT22;5574;48.786;10.120;2023-07-20T01:35:16;20.80;81.90
11043;DHT22;5574;48.786;10.120;2023-07-20T01:37:46;20.80;82.00
11043;DHT22;5574;48.786;10.120;2023-07-20T01:40:14;20.70;82.50
11043;DHT22;5574;48.786;10.120;2023-07-20T01:42:44;20.70;82.20
11043;DHT22;5574;48.786;10.120;2023-07-20T01:45:11;20.70;82.80
11043;DHT22;5574;48.786;10.120;2023-07-20T01:47:38;20.60;82.80
11043;DHT22;5574;48.786;10.120;2023-07-20T01:50:07;20.60;82.30
11043;DHT22;5574;48.786;10.120;2023-07-20T01:52:34;20.50;81.90
11043;DHT22;5574;48.786;10.120;2023-07-20T01:55:01;20.40;82.10
11043;DHT22;5574;48.786;10.120;2023-07-20T01:57:29;20.40;82.00
11043;DHT22;5574;48.786;10.120;2023-07-20T01:59:56;20.30;82.40
11043;DHT22;5574;48.786;10.120;2023-07-20T02:02:26;20.20;82.30
11043;DHT22;5574;48.786;10.120;2023-07-20T02:04:53;20.20;82.50
11043;DHT22;5574;48.786;10.120;2023-07-20T02:07:21;20.20;83.30
11043;DHT22;5574;48.786;10.120;2023-07-20T02:09:47;20.20;83.20
11043;DHT22;5574;48.786;10.120;2023-07-20T02:12:14;20.10;83.50
11043;DHT22;5574;48.786;10.120;2023-07-20T02:14:41;20.10;83.30
11043;DHT22;5574;48.786;10.120;2023-07-20T02:17:08;20.10;84.00
11043;DHT22;5574;48.786;10.120;2023-07-20T02:19:36;20.00;83.60
11043;DHT22;5574;48.786;10.120;2023-07-20T02:22:03;20.00;83.50
11043;DHT22;5574;48.786;10.120;2023-07-20T02:24:32;20.00;83.90
11043;DHT22;5574;48.786;10.120;2023-07-20T02:26:59;19.90;83.80
11043;DHT22;5574;48.786;10.120;2023-07-20T02:29:25;20.00;84.20
11043;DHT22;5574;48.786;10.120;2023-07-20T02:31:52;19.90;83.70
11043;DHT22;5574;48.786;10.120;2023-07-20T02:34:19;19.90;83.90
11043;DHT22;5574;48.786;10.120;2023-07-20T02:36:45;19.90;84.80
11043;DHT22;5574;48.786;10.120;2023-07-20T02:39:13;19.80;85.10
11043;DHT22;5574;48.786;10.120;2023-07-20T02:41:41;19.80;85.50
11043;DHT22;5574;48.786;10.120;2023-07-20T02:44:08;19.80;85.70
11043;DHT22;5574;48.786;10.120;2023-07-20T02:46:34;19.80;86.50
11043;DHT22;5574;48.786;10.120;2023-07-20T02:49:01;19.80;85.40
11043;DHT22;5574;48.786;10.120;2023-07-20T02:51:28;19.80;85.00
11043;DHT22;5574;48.786;10.120;2023-07-20T02:53:55;19.70;85.30
11043;DHT22;5574;48.786;10.120;2023-07-20T02:56:22;19.70;86.20
11043;DHT22;5574;48.786;10.120;2023-07-20T02:58:50;19.70;85.90
11043;DHT22;5574;48.786;10.120;2023-07-20T03:01:17;19.70;85.60
11043;DHT22;5574;48.786;10.120;2023-07-20T03:03:44;19.60;85.30
11043;DHT22;5574;48.786;10.120;2023-07-20T03:06:12;19.60;85.70
11043;DHT22;5574;48.786;10.120;2023-07-20T03:08:40;19.60;86.00
11043;DHT22;5574;48.786;10.120;2023-07-20T03:11:07;19.60;85.90
11043;DHT22;5574;48.786;10.120;2023-07-20T03:13:34;19.50;85.20
11043;DHT22;5574;48.786;10.120;2023-07-20T03:16:02;19.50;86.10
11043;DHT22;5574;48.786;10.120;2023-07-20T03:18:29;19.50;85.70
11043;DHT22;5574;48.786;10.120;2023-07-20T03:20:55;19.50;87.00
11043;DHT22;5574;48.786;10.120;2023-07-20T03:23:22;19.50;86.80
11043;DHT22;5574;48.786;10.120;2023-07-20T03:25:49;19.50;87.00
11043;DHT22;5574;48.786;10.120;2023-07-20T03:28:15;19.40;86.40
11043;DHT22;5574;48.786;10.120;2023-07-20T03:30:42;19.40;86.10
11043;DHT22;5574;48.786;10.120;2023-07-20T03:33:10;19.40;86.70
11043;DHT22;5574;48.786;10.120;2023-07-20T03:35:37;19.40;87.80
11043;DHT22;5574;48.786;10.120;2023-07-20T03:38:04;19.40;86.90
11043;DHT22;5574;48.786;10.120;2023-07-20T03:40:30;19.40;88.10
11043;DHT22;5574;48.786;10.120;2023-07-20T03:42:57;19.30;88.30
11043;DHT22;5574;48.786;10.120;2023-07-20T03:45:24;19.30;88.00
11043;DHT22;5574;48.786;10.120;2023-07-20T03:47:50;19.20;87.50
11043;DHT22;5574;48.786;10.120;2023-07-20T03:50:19;19.10;87.90
11043;DHT22;5574;48.786;10.120;2023-07-20T03:52:45;19.20;88.30
11043;DHT22;5574;48.786;10.120;2023-07-20T03:55:12;19.20;88.20
11043;DHT22;5574;48.786;10.120;2023-07-20T03:57:39;19.10;88.20
11043;DHT22;5574;48.786;10.120;2023-07-20T04:00:07;19.10;87.50
11043;DHT22;5574;48.786;10.120;2023-07-20T04:02:34;19.10;89.10
11043;DHT22;5574;48.786;10.120;2023-07-20T04:05:01;19.10;88.90
11043;DHT22;5574;48.786;10.120;2023-07-20T04:07:29;19.10;88.50
11043;DHT22;5574;48.786;10.120;2023-07-20T04:09:55;19.10;88.90
11043;DHT22;5574;48.786;10.120;2023-07-20T04:12:22;19.10;89.70
11043;DHT22;5574;48.786;10.120;2023-07-20T04:14:49;19.00;88.80
11043;DHT22;5574;48.786;10.120;2023-07-20T04:17:16;19.00;89.50
11043;DHT22;5574;48.786;10.120;2023-07-20T04:19:42;19.00;90.50
11043;DHT22;5574;48.786;10.120;2023-07-20T04:22:09;18.90;90.10
11043;DHT22;5574;48.786;10.120;2023-07-20T04:24:37;18.90;90.60
11043;DHT22;5574;48.786;10.120;2023-07-20T04:27:04;18.90;90.70
11043;DHT22;5574;48.786;10.120;2023-07-20T04:29:31;18.80;90.90
11043;DHT22;5574;48.786;10.120;2023-07-20T04:31:58;18.80;90.90
11043;DHT22;5574;48.786;10.120;2023-07-20T04:34:24;18.80;91.40
11043;DHT22;5574;48.786;10.120;2023-07-20T04:36:51;18.80;91.00
11043;DHT22;5574;48.786;10.120;2023-07-20T04:39:18;18.80;90.60
11043;DHT22;5574;48.786;10.120;2023-07-20T04:41:46;18.80;90.00
11043;DHT22;5574;48.786;10.120;2023-07-20T04:44:13;18.80;90.80
11043;DHT22;5574;48.786;10.120;2023-07-20T04:46:40;18.90;90.30
11043;DHT22;5574;48.786;10.120;2023-07-20T04:49:07;18.80;90.00
11043;DHT22;5574;48.786;10.120;2023-07-20T04:51:34;18.80;89.40
11043;DHT22;5574;48.786;10.120;2023-07-20T04:54:00;18.80;90.10
11043;DHT22;5574;48.786;10.120;2023-07-20T04:56:27;18.90;89.50
11043;DHT22;5574;48.786;10.120;2023-07-20T04:58:55;19.00;90.20
11043;DHT22;5574;48.786;10.120;2023-07-20T05:01:22;19.00;89.60
11043;DHT22;5574;48.786;10.120;2023-07-20T05:03:49;19.00;90.00
11043;DHT22;5574;48.786;10.120;2023-07-20T05:06:16;19.10;90.40
11043;DHT22;5574;48.786;10.120;2023-07-20T05:08:43;19.10;89.70
11043;DHT22;5574;48.786;10.120;2023-07-20T05:11:09;19.10;90.00
11043;DHT22;5574;48.786;10.120;2023-07-20T05:13:37;19.20;89.80
11043;DHT22;5574;48.786;10.120;2023-07-20T05:16:05;19.30;89.50
11043;DHT22;5574;48.786;10.120;2023-07-20T05:18:32;19.30;89.70
11043;DHT22;5574;48.786;10.120;2023-07-20T05:20:58;19.40;90.00
11043;DHT22;5574;48.786;10.120;2023-07-20T05:23:25;19.50;89.30
11043;DHT22;5574;48.786;10.120;2023-07-20T05:25:54;19.50;89.30
11043;DHT22;5574;48.786;10.120;2023-07-20T05:28:21;19.50;88.10
11043;DHT22;5574;48.786;10.120;2023-07-20T05:30:48;19.60;89.20
11043;DHT22;5574;48.786;10.120;2023-07-20T05:33:16;19.60;88.90
11043;DHT22;5574;48.786;10.120;2023-07-20T05:35:43;19.60;87.60
11043;DHT22;5574;48.786;10.120;2023-07-20T05:38:09;19.60;87.60
11043;DHT22;5574;48.786;10.120;2023-07-20T05:40:37;19.70;87.60
11043;DHT22;5574;48.786;10.120;2023-07-20T05:43:04;19.70;88.70
11043;DHT22;5574;48.786;10.120;2023-07-20T05:45:31;19.80;87.20
11043;DHT22;5574;48.786;10.120;2023-07-20T05:47:57;19.90;88.00
11043;DHT22;5574;48.786;10.120;2023-07-20T05:50:25;19.90;87.40
11043;DHT22;5574;48.786;10.120;2023-07-20T05:52:53;20.00;87.20
11043;DHT22;5574;48.786;10.120;2023-07-20T05:55:20;20.00;87.30
11043;DHT22;5574;48.786;10.120;2023-07-20T05:57:47;20.00;87.30
11043;DHT22;5574;48.786;10.120;2023-07-20T06:00:15;20.00;87.30
11043;DHT22;5574;48.786;10.120;2023-07-20T06:02:44;20.00;87.10
11043;DHT22;5574;48.786;10.120;2023-07-20T06:05:13;20.10;87.40
11043;DHT22;5574;48.786;10.120;2023-07-20T06:07:41;20.10;87.40
11043;DHT22;5574;48.786;10.120;2023-07-20T06:10:11;20.10;87.00
11043;DHT22;5574;48.786;10.120;2023-07-20T06:12:37;20.10;87.00
11043;DHT22;5574;48.786;10.120;2023-07-20T06:15:07;20.20;86.50
11043;DHT22;5574;48.786;10.120;2023-07-20T06:17:49;20.20;86.20
11043;DHT22;5574;48.786;10.120;2023-07-20T06:20:16;20.20;87.20
11043;DHT22;5574;48.786;10.120;2023-07-20T06:22:44;20.30;87.60
11043;DHT22;5574;48.786;10.120;2023-07-20T06:25:11;20.40;86.30
11043;DHT22;5574;48.786;10.120;2023-07-20T06:27:38;20.40;85.20
11043;DHT22;5574;48.786;10.120;2023-07-20T06:30:06;20.40;85.50
11043;DHT22;5574;48.786;10.120;2023-07-20T06:32:33;20.50;85.90
11043;DHT22;5574;48.786;10.120;2023-07-20T06:35:00;20.40;84.20
11043;DHT22;5574;48.786;10.120;2023-07-20T06:37:26;20.50;84.70
11043;DHT22;5574;48.786;10.120;2023-07-20T06:39:55;20.50;84.40
11043;DHT22;5574;48.786;10.120;2023-07-20T06:42:21;20.60;85.30
11043;DHT22;5574;48.786;10.120;2023-07-20T06:44:48;20.70;84.30
11043;DHT22;5574;48.786;10.120;2023-07-20T06:47:15;20.80;84.80
11043;DHT22;5574;48.786;10.120;2023-07-20T06:49:41;20.80;84.30
11043;DHT22;5574;48.786;10.120;2023-07-20T06:52:08;20.80;83.50
11043;DHT22;5574;48.786;10.120;2023-07-20T06:54:35;20.90;84.00
11043;DHT22;5574;48.786;10.120;2023-07-20T06:57:05;20.90;84.00
11043;DHT22;5574;48.786;10.120;2023-07-20T06:59:32;20.90;83.10
11043;DHT22;5574;48.786;10.120;2023-07-20T07:01:58;20.90;83.30
11043;DHT22;5574;48.786;10.120;2023-07-20T07:04:25;20.90;84.20
11043;DHT22;5574;48.786;10.120;2023-07-20T07:06:52;20.80;84.40
11043;DHT22;5574;48.786;10.120;2023-07-20T07:09:19;20.80;83.80
11043;DHT22;5574;48.786;10.120;2023-07-20T07:11:46;20.70;84.00
11043;DHT22;5574;48.786;10.120;2023-07-20T07:14:14;20.90;84.80
11043;DHT22;5574;48.786;10.120;2023-07-20T07:16:41;20.90;84.50
11043;DHT22;5574;48.786;10.120;2023-07-20T07:19:08;20.90;86.60
11043;DHT22;5574;48.786;10.120;2023-07-20T07:21:34;20.90;84.60
11043;DHT22;5574;48.786;10.120;2023-07-20T07:24:01;21.00;85.00
11043;DHT22;5574;48.786;10.120;2023-07-20T07:26:29;21.00;84.30
11043;DHT22;5574;48.786;10.120;2023-07-20T07:28:55;21.20;86.40
11043;DHT22;5574;48.786;10.120;2023-07-20T07:31:24;21.30;83.60
11043;DHT22;5574;48.786;10.120;2023-07-20T07:33:51;21.50;84.40
11043;DHT22;5574;48.786;10.120;2023-07-20T07:36:18;21.40;83.70
11043;DHT22;5574;48.786;10.120;2023-07-20T07:38:45;21.50;83.30
11043;DHT22;5574;48.786;10.120;2023-07-20T07:41:12;21.60;83.90
11043;DHT22;5574;48.786;10.120;2023-07-20T07:43:38;21.60;83.70
11043;DHT22;5574;48.786;10.120;2023-07-20T07:46:05;21.70;83.40
11043;DHT22;5574;48.786;10.120;2023-07-20T07:48:33;21.70;82.80
11043;DHT22;5574;48.786;10.120;2023-07-20T07:51:00;21.70;83.80
11043;DHT22;5574;48.786;10.120;2023-07-20T07:53:27;21.70;82.80
11043;DHT22;5574;48.786;10.120;2023-07-20T07:55:53;21.80;83.20
11043;DHT22;5574;48.786;10.120;2023-07-20T07:58:20;21.90;81.00
11043;DHT22;5574;48.786;10.120;2023-07-20T08:00:47;22.00;81.40
11043;DHT22;5574;48.786;10.120;2023-07-20T08:03:14;22.10;81.20
11043;DHT22;5574;48.786;10.120;2023-07-20T08:05:42;22.20;81.20
11043;DHT22;5574;48.786;10.120;2023-07-20T08:08:09;22.40;79.60
11043;DHT22;5574;48.786;10.120;2023-07-20T08:10:36;22.10;78.70
11043;DHT22;5574;48.786;10.120;2023-07-20T08:13:02;21.80;80.60
11043;DHT22;5574;48.786;10.120;2023-07-20T08:15:29;21.80;83.20
11043;DHT22;5574;48.786;10.120;2023-07-20T08:17:56;21.90;82.50
11043;DHT22;5574;48.786;10.120;2023-07-20T08:20:22;22.00;81.20
11043;DHT22;5574;48.786;10.120;2023-07-20T08:22:53;22.20;80.50
11043;DHT22;5574;48.786;10.120;2023-07-20T08:25:20;22.30;79.60
11043;DHT22;5574;48.786;10.120;2023-07-20T08:27:47;22.40;80.70
11043;DHT22;5574;48.786;10.120;2023-07-20T08:30:14;22.50;80.80
11043;DHT22;5574;48.786;10.120;2023-07-20T08:32:40;22.60;79.70
11043;DHT22;5574;48.786;10.120;2023-07-20T08:35:08;22.50;79.60
11043;DHT22;5574;48.786;10.120;2023-07-20T08:37:35;22.40;80.40
11043;DHT22;5574;48.786;10.120;2023-07-20T08:40:03;22.10;79.20
11043;DHT22;5574;48.786;10.120;2023-07-20T08:42:34;22.10;80.60
11043;DHT22;5574;48.786;10.120;2023-07-20T08:45:05;22.30;81.20
11043;DHT22;5574;48.786;10.120;2023-07-20T08:47:33;22.60;80.90
11043;DHT22;5574;48.786;10.120;2023-07-20T08:50:00;22.40;78.90
11043;DHT22;5574;48.786;10.120;2023-07-20T08:52:28;22.30;79.40
11043;DHT22;5574;48.786;10.120;2023-07-20T08:54:55;22.40;81.80
11043;DHT22;5574;48.786;10.120;2023-07-20T08:57:23;22.10;79.70
11043;DHT22;5574;48.786;10.120;2023-07-20T08:59:52;22.00;80.00
11043;DHT22;5574;48.786;10.120;2023-07-20T09:02:24;21.90;80.10
11043;DHT22;5574;48.786;10.120;2023-07-20T09:04:52;21.90;78.90
11043;DHT22;5574;48.786;10.120;2023-07-20T09:07:19;22.10;79.20
11043;DHT22;5574;48.786;10.120;2023-07-20T09:09:46;22.00;79.10
11043;DHT22;5574;48.786;10.120;2023-07-20T09:12:13;21.90;79.20
11043;DHT22;5574;48.786;10.120;2023-07-20T09:14:44;21.80;78.80
11043;DHT22;5574;48.786;10.120;2023-07-20T09:17:13;21.70;79.50
11043;DHT22;5574;48.786;10.120;2023-07-20T09:19:46;21.70;80.60
11043;DHT22;5574;48.786;10.120;2023-07-20T09:22:13;21.70;79.30
11043;DHT22;5574;48.786;10.120;2023-07-20T09:24:40;21.60;80.00
11043;DHT22;5574;48.786;10.120;2023-07-20T09:27:08;21.60;81.10
11043;DHT22;5574;48.786;10.120;2023-07-20T09:29:49;21.60;81.50
11043;DHT22;5574;48.786;10.120;2023-07-20T09:32:18;21.60;81.00
11043;DHT22;5574;48.786;10.120;2023-07-20T09:34:46;21.60;82.10
11043;DHT22;5574;48.786;10.120;2023-07-20T09:37:12;21.60;81.30
11043;DHT22;5574;48.786;10.120;2023-07-20T09:39:43;21.60;79.90
11043;DHT22;5574;48.786;10.120;2023-07-20T09:42:11;21.90;79.60
11043;DHT22;5574;48.786;10.120;2023-07-20T09:44:38;22.50;81.00
11043;DHT22;5574;48.786;10.120;2023-07-20T09:47:06;22.80;76.40
11043;DHT22;5574;48.786;10.120;2023-07-20T09:49:39;22.70;76.50
11043;DHT22;5574;48.786;10.120;2023-07-20T09:52:07;22.70;76.80
11043;DHT22;5574;48.786;10.120;2023-07-20T09:54:36;23.00;74.80
11043;DHT22;5574;48.786;10.120;2023-07-20T09:57:04;23.50;76.80
11043;DHT22;5574;48.786;10.120;2023-07-20T09:59:33;23.60;72.80
11043;DHT22;5574;48.786;10.120;2023-07-20T10:02:01;23.80;75.60
11043;DHT22;5574;48.786;10.120;2023-07-20T10:04:30;24.00;72.30
11043;DHT22;5574;48.786;10.120;2023-07-20T10:07:04;24.30;73.50
11043;DHT22;5574;48.786;10.120;2023-07-20T10:09:32;24.20;70.70
11043;DHT22;5574;48.786;10.120;2023-07-20T10:12:01;23.90;69.80
11043;DHT22;5574;48.786;10.120;2023-07-20T10:14:30;23.90;72.50
11043;DHT22;5574;48.786;10.120;2023-07-20T10:17:01;24.10;74.50
11043;DHT22;5574;48.786;10.120;2023-07-20T10:19:36;24.30;71.50
11043;DHT22;5574;48.786;10.120;2023-07-20T10:22:10;24.10;69.00
11043;DHT22;5574;48.786;10.120;2023-07-20T10:24:39;23.80;70.70
11043;DHT22;5574;48.786;10.120;2023-07-20T10:27:06;23.50;72.00
11043;DHT22;5574;48.786;10.120;2023-07-20T10:29:33;23.40;73.40
11043;DHT22;5574;48.786;10.120;2023-07-20T10:32:01;23.30;73.30
11043;DHT22;5574;48.786;10.120;2023-07-20T10:34:28;23.50;73.70
11043;DHT22;5574;48.786;10.120;2023-07-20T10:36:56;23.50;73.20
11043;DHT22;5574;48.786;10.120;2023-07-20T10:39:23;23.50;73.90
11043;DHT22;5574;48.786;10.120;2023-07-20T10:41:59;23.50;73.60
11043;DHT22;5574;48.786;10.120;2023-07-20T10:44:26;23.70;74.30
11043;DHT22;5574;48.786;10.120;2023-07-20T10:46:59;24.00;76.60
11043;DHT22;5574;48.786;10.120;2023-07-20T10:49:26;24.10;74.20
11043;DHT22;5574;48.786;10.120;2023-07-20T10:51:58;23.90;73.80
11043;DHT22;5574;48.786;10.120;2023-07-20T10:54:47;24.00;74.10
11043;DHT22;5574;48.786;10.120;2023-07-20T10:57:30;23.70;73.80
11043;DHT22;5574;48.786;10.120;2023-07-20T11:00:08;23.40;75.50
11043;DHT22;5574;48.786;10.120;2023-07-20T11:02:42;23.20;76.30
11043;DHT22;5574;48.786;10.120;2023-07-20T11:05:35;23.00;75.50
11043;DHT22;5574;48.786;10.120;2023-07-20T11:08:11;23.40;75.20
11043;DHT22;5574;48.786;10.120;2023-07-20T11:10:38;23.90;71.80
11043;DHT22;5574;48.786;10.120;2023-07-20T11:13:18;24.40;73.30
11043;DHT22;5574;48.786;10.120;2023-07-20T11:15:47;24.70;70.50
11043;DHT22;5574;48.786;10.120;2023-07-20T11:18:14;24.60;69.00
11043;DHT22;5574;48.786;10.120;2023-07-20T11:20:41;24.80;72.90
11043;DHT22;5574;48.786;10.120;2023-07-20T11:23:10;25.00;69.40
11043;DHT22;5574;48.786;10.120;2023-07-20T11:25:38;24.70;70.20
11043;DHT22;5574;48.786;10.120;2023-07-20T11:28:07;24.40;71.80
11043;DHT22;5574;48.786;10.120;2023-07-20T11:30:34;24.60;67.70
11043;DHT22;5574;48.786;10.120;2023-07-20T11:33:00;24.70;65.70
11043;DHT22;5574;48.786;10.120;2023-07-20T11:35:27;24.80;66.30
11043;DHT22;5574;48.786;10.120;2023-07-20T11:37:55;25.20;68.10
11043;DHT22;5574;48.786;10.120;2023-07-20T11:40:23;25.10;64.00
11043;DHT22;5574;48.786;10.120;2023-07-20T11:42:50;24.80;65.30
11043;DHT22;5574;48.786;10.120;2023-07-20T11:45:18;24.60;68.10
11043;DHT22;5574;48.786;10.120;2023-07-20T11:47:45;24.70;68.40
11043;DHT22;5574;48.786;10.120;2023-07-20T11:50:12;24.40;69.10
11043;DHT22;5574;48.786;10.120;2023-07-20T11:52:39;24.10;70.70
11043;DHT22;5574;48.786;10.120;2023-07-20T11:55:07;23.90;71.60
11043;DHT22;5574;48.786;10.120;2023-07-20T11:57:35;23.80;72.40
11043;DHT22;5574;48.786;10.120;2023-07-20T12:00:04;23.70;72.20
11043;DHT22;5574;48.786;10.120;2023-07-20T12:02:37;23.80;72.10
11043;DHT22;5574;48.786;10.120;2023-07-20T12:05:05;23.90;71.90
11043;DHT22;5574;48.786;10.120;2023-07-20T12:07:35;24.40;73.20
11043;DHT22;5574;48.786;10.120;2023-07-20T12:10:04;24.60;70.30
11043;DHT22;5574;48.786;10.120;2023-07-20T12:12:31;24.70;68.80
11043;DHT22;5574;48.786;10.120;2023-07-20T12:15:16;25.10;68.50
11043;DHT22;5574;48.786;10.120;2023-07-20T12:17:43;25.50;67.90
11043;DHT22;5574;48.786;10.120;2023-07-20T12:20:11;25.70;65.90
11043;DHT22;5574;48.786;10.120;2023-07-20T12:22:39;25.80;64.20
11043;DHT22;5574;48.786;10.120;2023-07-20T12:25:07;25.80;64.50
11043;DHT22;5574;48.786;10.120;2023-07-20T12:27:36;25.40;66.50
11043;DHT22;5574;48.786;10.120;2023-07-20T12:30:04;25.50;66.80
11043;DHT22;5574;48.786;10.120;2023-07-20T12:32:33;25.20;67.00
11043;DHT22;5574;48.786;10.120;2023-07-20T12:34:59;25.50;67.20
11043;DHT22;5574;48.786;10.120;2023-07-20T12:37:26;25.70;65.60
11043;DHT22;5574;48.786;10.120;2023-07-20T12:39:53;26.00;64.60
11043;DHT22;5574;48.786;10.120;2023-07-20T12:42:20;26.10;64.30
11043;DHT22;5574;48.786;10.120;2023-07-20T12:44:48;26.20;64.30
11043;DHT22;5574;48.786;10.120;2023-07-20T12:47:16;25.80;66.60
11043;DHT22;5574;48.786;10.120;2023-07-20T12:49:44;25.40;66.30
11043;DHT22;5574;48.786;10.120;2023-07-20T12:52:12;25.40;64.80
11043;DHT22;5574;48.786;10.120;2023-07-20T12:54:38;25.70;65.40
11043;DHT22;5574;48.786;10.120;2023-07-20T12:57:06;25.80;66.20
11043;DHT22;5574;48.786;10.120;2023-07-20T12:59:32;26.00;64.00
11043;DHT22;5574;48.786;10.120;2023-07-20T13:02:00;26.00;63.50
11043;DHT22;5574;48.786;10.120;2023-07-20T13:04:27;26.00;62.60
11043;DHT22;5574;48.786;10.120;2023-07-20T13:06:55;25.90;63.90
11043;DHT22;5574;48.786;10.120;2023-07-20T13:09:23;26.00;64.10
11043;DHT22;5574;48.786;10.120;2023-07-20T13:11:50;25.90;63.00
11043;DHT22;5574;48.786;10.120;2023-07-20T13:14:18;25.60;66.20
11043;DHT22;5574;48.786;10.120;2023-07-20T13:16:44;25.40;65.80
11043;DHT22;5574;48.786;10.120;2023-07-20T13:19:11;25.60;65.20
11043;DHT22;5574;48.786;10.120;2023-07-20T13:21:38;25.80;64.30
11043;DHT22;5574;48.786;10.120;2023-07-20T13:24:06;26.00;63.80
11043;DHT22;5574;48.786;10.120;2023-07-20T13:26:33;25.90;66.40
11043;DHT22;5574;48.786;10.120;2023-07-20T13:28:59;25.70;61.10
11043;DHT22;5574;48.786;10.120;2023-07-20T13:31:26;25.80;63.70
11043;DHT22;5574;48.786;10.120;2023-07-20T13:33:53;25.50;61.90
11043;DHT22;5574;48.786;10.120;2023-07-20T13:36:20;25.20;61.00
11043;DHT22;5574;48.786;10.120;2023-07-20T13:38:47;25.30;62.10
11043;DHT22;5574;48.786;10.120;2023-07-20T13:41:16;25.20;62.40
11043;DHT22;5574;48.786;10.120;2023-07-20T13:43:42;25.10;63.60
11043;DHT22;5574;48.786;10.120;2023-07-20T13:46:09;25.30;65.00
11043;DHT22;5574;48.786;10.120;2023-07-20T13:48:36;25.60;63.90
11043;DHT22;5574;48.786;10.120;2023-07-20T13:51:03;25.60;61.00
11043;DHT22;5574;48.786;10.120;2023-07-20T13:53:30;25.50;63.20
11043;DHT22;5574;48.786;10.120;2023-07-20T13:55:57;25.70;61.10
11043;DHT22;5574;48.786;10.120;2023-07-20T13:58:25;25.50;62.30
11043;DHT22;5574;48.786;10.120;2023-07-20T14:00:52;25.60;61.60
11043;DHT22;5574;48.786;10.120;2023-07-20T14:03:18;25.80;60.00
11043;DHT22;5574;48.786;10.120;2023-07-20T14:05:45;25.90;60.90
11043;DHT22;5574;48.786;10.120;2023-07-20T14:08:12;25.90;58.80
11043;DHT22;5574;48.786;10.120;2023-07-20T14:10:39;25.70;63.70
11043;DHT22;5574;48.786;10.120;2023-07-20T14:13:05;25.40;61.50
11043;DHT22;5574;48.786;10.120;2023-07-20T14:15:35;25.20;59.60
11043;DHT22;5574;48.786;10.120;2023-07-20T14:18:01;25.20;64.90
11043;DHT22;5574;48.786;10.120;2023-07-20T14:20:28;25.10;62.80
11043;DHT22;5574;48.786;10.120;2023-07-20T14:22:55;25.30;62.10
11043;DHT22;5574;48.786;10.120;2023-07-20T14:25:22;25.40;60.10
11043;DHT22;5574;48.786;10.120;2023-07-20T14:27:48;25.50;60.90
11043;DHT22;5574;48.786;10.120;2023-07-20T14:30:15;25.60;62.50
11043;DHT22;5574;48.786;10.120;2023-07-20T14:32:43;25.70;62.30
11043;DHT22;5574;48.786;10.120;2023-07-20T14:35:10;25.90;59.10
11043;DHT22;5574;48.786;10.120;2023-07-20T14:37:37;26.00;61.40
11043;DHT22;5574;48.786;10.120;2023-07-20T14:40:04;26.10;61.90
11043;DHT22;5574;48.786;10.120;2023-07-20T14:42:32;26.20;59.20
11043;DHT22;5574;48.786;10.120;2023-07-20T14:44:59;26.20;60.30
11043;DHT22;5574;48.786;10.120;2023-07-20T14:47:25;26.10;58.80
11043;DHT22;5574;48.786;10.120;2023-07-20T14:49:54;25.90;61.20
11043;DHT22;5574;48.786;10.120;2023-07-20T14:52:21;25.90;61.20
11043;DHT22;5574;48.786;10.120;2023-07-20T14:54:48;26.00;59.10
11043;DHT22;5574;48.786;10.120;2023-07-20T14:57:14;26.20;59.20
11043;DHT22;5574;48.786;10.120;2023-07-20T14:59:42;26.20;57.90
11043;DHT22;5574;48.786;10.120;2023-07-20T15:02:09;26.20;60.00
11043;DHT22;5574;48.786;10.120;2023-07-20T15:04:36;26.30;58.50
11043;DHT22;5574;48.786;10.120;2023-07-20T15:07:05;26.30;57.90
11043;DHT22;5574;48.786;10.120;2023-07-20T15:09:31;26.30;58.70
11043;DHT22;5574;48.786;10.120;2023-07-20T15:11:59;26.30;58.70
11043;DHT22;5574;48.786;10.120;2023-07-20T15:14:26;26.30;58.90
11043;DHT22;5574;48.786;10.120;2023-07-20T15:16:53;26.20;56.90
11043;DHT22;5574;48.786;10.120;2023-07-20T15:19:20;25.90;59.00
11043;DHT22;5574;48.786;10.120;2023-07-20T15:21:47;25.80;58.70
11043;DHT22;5574;48.786;10.120;2023-07-20T15:24:15;25.80;59.60
11043;DHT22;5574;48.786;10.120;2023-07-20T15:26:42;25.70;58.30
11043;DHT22;5574;48.786;10.120;2023-07-20T15:29:08;25.60;59.90
11043;DHT22;5574;48.786;10.120;2023-07-20T15:31:36;25.50;58.40
11043;DHT22;5574;48.786;10.120;2023-07-20T15:34:02;25.40;57.50
11043;DHT22;5574;48.786;10.120;2023-07-20T15:36:29;25.40;59.60
11043;DHT22;5574;48.786;10.120;2023-07-20T15:38:56;25.40;59.50